createdAt,value
2017-01-24T00:00:07.697Z,1020.99
2017-01-24T00:01:18.424Z,1020.97
2017-01-24T00:02:28.743Z,1020.97
2017-01-24T00:03:39.127Z,1020.96
2017-01-24T00:04:49.044Z,1020.98
2017-01-24T00:05:58.963Z,1020.93
2017-01-24T00:07:09.673Z,1020.93
2017-01-24T00:08:19.588Z,1020.94
2017-01-24T00:09:29.907Z,1020.98
2017-01-24T00:10:40.631Z,1020.96
2017-01-24T00:11:51.345Z,1020.94
2017-01-24T00:13:01.265Z,1020.97
2017-01-24T00:14:11.579Z,1020.95
2017-01-24T00:15:22.291Z,1020.95
2017-01-24T00:16:32.995Z,1020.95
2017-01-24T00:17:43.325Z,1021
2017-01-24T00:18:54.042Z,1020.94
2017-01-24T00:20:04.742Z,1020.94
2017-01-24T00:21:15.052Z,1020.95
2017-01-24T00:22:25.761Z,1020.92
2017-01-24T00:23:36.060Z,1020.96
2017-01-24T00:24:45.580Z,1020.97
2017-01-24T00:25:55.897Z,1020.94
2017-01-24T00:27:06.218Z,1020.94
2017-01-24T00:28:16.337Z,1020.96
2017-01-24T00:29:26.643Z,1020.94
2017-01-24T00:30:36.956Z,1020.88
2017-01-24T00:31:47.685Z,1020.89
2017-01-24T00:32:58.390Z,1020.91
2017-01-24T00:34:08.730Z,1020.96
2017-01-24T00:35:19.427Z,1020.99
2017-01-24T00:36:30.133Z,1020.98
2017-01-24T00:37:40.063Z,1020.96
2017-01-24T00:38:50.578Z,1020.95
2017-01-24T00:40:00.892Z,1020.98
2017-01-24T00:41:11.212Z,1021
2017-01-24T00:42:21.938Z,1021.02
2017-01-24T00:43:32.303Z,1021.07
2017-01-24T00:44:42.620Z,1021.07
2017-01-24T00:45:52.941Z,1021.09
2017-01-24T00:47:03.253Z,1021.07
2017-01-24T00:48:13.579Z,1021.01
2017-01-24T00:49:24.292Z,1021.04
2017-01-24T00:50:35.000Z,1021.03
2017-01-24T00:51:45.767Z,1021.06
2017-01-24T00:52:56.089Z,1021.06
2017-01-24T00:54:06.799Z,1021.04
2017-01-24T00:55:16.724Z,1021.06
2017-01-24T00:56:27.032Z,1021.06
2017-01-24T00:57:37.746Z,1021.1
2017-01-24T00:58:48.056Z,1021.04
2017-01-24T00:59:58.773Z,1021.05
2017-01-24T01:01:09.089Z,1021.05
2017-01-24T01:02:19.419Z,1021.03
2017-01-24T01:03:29.740Z,1021.05
2017-01-24T01:04:40.449Z,1021.07
2017-01-24T01:05:50.773Z,1021.12
2017-01-24T01:07:01.077Z,1021.16
2017-01-24T01:08:11.391Z,1021.19
2017-01-24T01:09:21.704Z,1021.19
2017-01-24T01:10:32.018Z,1021.23
2017-01-24T01:11:42.719Z,1021.25
2017-01-24T01:12:53.029Z,1021.23
2017-01-24T01:14:03.736Z,1021.29
2017-01-24T01:15:13.506Z,1021.27
2017-01-24T01:16:23.041Z,1021.3
2017-01-24T01:17:32.966Z,1021.31
2017-01-24T01:18:43.682Z,1021.3
2017-01-24T01:19:54.009Z,1021.28
2017-01-24T01:21:03.919Z,1021.27
2017-01-24T01:22:13.842Z,1021.32
2017-01-24T01:23:24.542Z,1021.33
2017-01-24T01:24:34.450Z,1021.36
2017-01-24T01:25:44.753Z,1021.35
2017-01-24T01:26:55.164Z,1021.41
2017-01-24T01:28:05.900Z,1021.38
2017-01-24T01:29:16.616Z,1021.33
2017-01-24T01:30:26.936Z,1021.42
2017-01-24T01:31:37.249Z,1021.43
2017-01-24T01:32:47.980Z,1021.41
2017-01-24T01:33:58.933Z,1021.39
2017-01-24T01:35:09.253Z,1021.44
2017-01-24T01:36:19.179Z,1021.42
2017-01-24T01:37:29.873Z,1021.41
2017-01-24T01:38:40.581Z,1021.39
2017-01-24T01:39:50.100Z,1021.39
2017-01-24T01:41:00.797Z,1021.37
2017-01-24T01:42:11.106Z,1021.39
2017-01-24T01:43:21.816Z,1021.36
2017-01-24T01:44:32.517Z,1021.37
2017-01-24T01:45:42.041Z,1021.3
2017-01-24T01:46:52.344Z,1021.31
2017-01-24T01:48:02.264Z,1021.29
2017-01-24T01:49:12.972Z,1021.26
2017-01-24T01:50:23.682Z,1021.24
2017-01-24T01:51:34.383Z,1021.25
2017-01-24T01:52:44.299Z,1021.22
2017-01-24T01:53:55.006Z,1021.21
2017-01-24T01:55:05.703Z,1021.2
2017-01-24T01:56:16.401Z,1021.2
2017-01-24T01:57:27.109Z,1021.15
2017-01-24T01:58:37.817Z,1021.19
2017-01-24T01:59:47.737Z,1021.16
2017-01-24T02:00:57.656Z,1021.14
2017-01-24T02:02:07.579Z,1021.1
2017-01-24T02:03:17.496Z,1021.17
2017-01-24T02:04:28.209Z,1021.15
2017-01-24T02:05:38.907Z,1021.18
2017-01-24T02:06:49.616Z,1021.16
2017-01-24T02:07:59.952Z,1021.16
2017-01-24T02:09:10.660Z,1021.21
2017-01-24T02:10:20.186Z,1021.17
2017-01-24T02:11:30.900Z,1021.18
2017-01-24T02:12:40.816Z,1021.23
2017-01-24T02:13:51.523Z,1021.23
2017-01-24T02:15:02.228Z,1021.21
2017-01-24T02:16:12.938Z,1021.2
2017-01-24T02:17:23.248Z,1021.17
2017-01-24T02:18:33.564Z,1021.16
2017-01-24T02:19:43.075Z,1021.18
2017-01-24T02:20:53.372Z,1021.14
2017-01-24T02:22:04.105Z,1021.1
2017-01-24T02:23:14.812Z,1021.15
2017-01-24T02:24:25.523Z,1021.15
2017-01-24T02:25:36.246Z,1021.13
2017-01-24T02:26:46.566Z,1021.12
2017-01-24T02:27:57.314Z,1021.13
2017-01-24T02:29:07.624Z,1021.1
2017-01-24T02:30:17.942Z,1021.09
2017-01-24T02:31:28.673Z,1021.13
2017-01-24T02:32:39.382Z,1021.14
2017-01-24T02:33:49.307Z,1021.16
2017-01-24T02:34:59.225Z,1021.16
2017-01-24T02:36:09.151Z,1021.16
2017-01-24T02:37:19.468Z,1021.14
2017-01-24T02:38:29.385Z,1021.18
2017-01-24T02:39:40.085Z,1021.16
2017-01-24T02:40:50.383Z,1021.13
2017-01-24T02:42:00.291Z,1021.11
2017-01-24T02:43:09.811Z,1021.09
2017-01-24T02:44:19.730Z,1021.1
2017-01-24T02:45:29.637Z,1021.09
2017-01-24T02:46:39.948Z,1021.11
2017-01-24T02:47:50.672Z,1021.14
2017-01-24T02:49:00.982Z,1021.15
2017-01-24T02:50:10.899Z,1021.1
2017-01-24T02:51:21.601Z,1021.08
2017-01-24T02:52:32.303Z,1021.07
2017-01-24T02:53:43.012Z,1021.06
2017-01-24T02:54:53.322Z,1021.08
2017-01-24T02:56:04.027Z,1021.1
2017-01-24T02:57:14.329Z,1021.09
2017-01-24T02:58:25.033Z,1021.04
2017-01-24T02:59:34.937Z,1021.03
2017-01-24T03:00:44.847Z,1021.07
2017-01-24T03:01:55.551Z,1021.09
2017-01-24T03:03:06.281Z,1021.13
2017-01-24T03:04:16.591Z,1021.09
2017-01-24T03:05:26.898Z,1021.08
2017-01-24T03:06:37.208Z,1021.09
2017-01-24T03:07:47.909Z,1021.09
2017-01-24T03:08:58.626Z,1021.1
2017-01-24T03:10:09.337Z,1021.06
2017-01-24T03:11:20.032Z,1021.1
2017-01-24T03:12:30.339Z,1021.08
2017-01-24T03:13:41.039Z,1021.09
2017-01-24T03:14:51.444Z,1021.1
2017-01-24T03:16:01.005Z,1021.11
2017-01-24T03:17:11.715Z,1021.05
2017-01-24T03:18:21.654Z,1021.07
2017-01-24T03:19:31.974Z,1021.1
2017-01-24T03:20:42.697Z,1021.08
2017-01-24T03:21:53.007Z,1021.07
2017-01-24T03:23:03.309Z,1021.09
2017-01-24T03:24:14.038Z,1021.07
2017-01-24T03:25:24.745Z,1021.11
2017-01-24T03:26:35.453Z,1021.17
2017-01-24T03:27:46.159Z,1021.18
2017-01-24T03:28:56.889Z,1021.17
2017-01-24T03:30:07.203Z,1021.13
2017-01-24T03:31:17.909Z,1021.14
2017-01-24T03:32:28.217Z,1021.14
2017-01-24T03:33:38.921Z,1021.1
2017-01-24T03:34:49.245Z,1021.06
2017-01-24T03:35:59.955Z,1021.06
2017-01-24T03:37:10.684Z,1021.09
2017-01-24T03:38:20.602Z,1021.12
2017-01-24T03:39:30.921Z,1021.11
2017-01-24T03:40:41.634Z,1021.15
2017-01-24T03:41:51.577Z,1021.16
2017-01-24T03:43:01.894Z,1021.18
2017-01-24T03:44:12.595Z,1021.14
2017-01-24T03:45:23.302Z,1021.13
2017-01-24T03:46:34.002Z,1021.15
2017-01-24T03:47:44.704Z,1021.12
2017-01-24T03:48:55.401Z,1021.17
2017-01-24T03:50:05.344Z,1021.18
2017-01-24T03:51:15.657Z,1021.15
2017-01-24T03:52:26.377Z,1021.1
2017-01-24T03:53:37.091Z,1021.11
2017-01-24T03:54:47.417Z,1021.2
2017-01-24T03:55:58.118Z,1021.23
2017-01-24T03:57:08.419Z,1021.19
2017-01-24T03:58:18.349Z,1021.21
2017-01-24T03:59:28.672Z,1021.21
2017-01-24T04:00:39.379Z,1021.19
2017-01-24T04:01:49.287Z,1021.14
2017-01-24T04:02:59.604Z,1021.2
2017-01-24T04:04:10.314Z,1021.2
2017-01-24T04:05:21.014Z,1021.18
2017-01-24T04:06:31.322Z,1021.13
2017-01-24T04:07:42.032Z,1021.15
2017-01-24T04:08:52.746Z,1021.12
2017-01-24T04:10:03.449Z,1021.14
2017-01-24T04:11:14.170Z,1021.17
2017-01-24T04:12:24.478Z,1021.14
2017-01-24T04:13:35.540Z,1021.11
2017-01-24T04:14:45.853Z,1021.1
2017-01-24T04:15:56.174Z,1021.04
2017-01-24T04:17:06.868Z,1021.06
2017-01-24T04:18:16.794Z,1021.06
2017-01-24T04:19:26.716Z,1021.01
2017-01-24T04:20:37.433Z,1021
2017-01-24T04:21:47.380Z,1021.08
2017-01-24T04:22:57.288Z,1021.1
2017-01-24T04:24:07.611Z,1021.15
2017-01-24T04:25:17.543Z,1021.08
2017-01-24T04:26:27.480Z,1021.12
2017-01-24T04:27:38.186Z,1021.14
2017-01-24T04:28:48.107Z,1021.11
2017-01-24T04:29:58.033Z,1021.09
2017-01-24T04:31:08.751Z,1021.09
2017-01-24T04:32:19.064Z,1021.07
2017-01-24T04:33:29.768Z,1021.16
2017-01-24T04:34:39.693Z,1021.22
2017-01-24T04:35:50.002Z,1021.18
2017-01-24T04:37:00.318Z,1021.14
2017-01-24T04:38:11.021Z,1021.11
2017-01-24T04:39:21.323Z,1021.21
2017-01-24T04:40:32.055Z,1021.23
2017-01-24T04:41:42.759Z,1021.25
2017-01-24T04:42:52.677Z,1021.22
2017-01-24T04:44:02.187Z,1021.25
2017-01-24T04:45:12.900Z,1021.25
2017-01-24T04:46:23.626Z,1021.25
2017-01-24T04:47:33.544Z,1021.27
2017-01-24T04:48:43.461Z,1021.25
2017-01-24T04:49:54.165Z,1021.29
2017-01-24T04:51:04.478Z,1021.32
2017-01-24T04:52:14.392Z,1021.34
2017-01-24T04:53:25.089Z,1021.32
2017-01-24T04:54:35.013Z,1021.26
2017-01-24T04:55:45.336Z,1021.22
2017-01-24T04:56:55.656Z,1021.23
2017-01-24T04:58:05.976Z,1021.27
2017-01-24T04:59:16.284Z,1021.28
2017-01-24T05:00:26.584Z,1021.27
2017-01-24T05:01:37.316Z,1021.25
2017-01-24T05:02:47.620Z,1021.25
2017-01-24T05:03:58.325Z,1021.21
2017-01-24T05:05:09.032Z,1021.2
2017-01-24T05:06:20.045Z,1021.19
2017-01-24T05:07:30.745Z,1021.25
2017-01-24T05:08:40.655Z,1021.21
2017-01-24T05:09:51.389Z,1021.24
2017-01-24T05:11:02.088Z,1021.26
2017-01-24T05:12:12.406Z,1021.25
2017-01-24T05:13:23.121Z,1021.29
2017-01-24T05:14:33.433Z,1021.32
2017-01-24T05:15:43.763Z,1021.35
2017-01-24T05:16:54.467Z,1021.31
2017-01-24T05:18:04.780Z,1021.31
2017-01-24T05:19:15.083Z,1021.34
2017-01-24T05:20:25.792Z,1021.33
2017-01-24T05:21:36.502Z,1021.34
2017-01-24T05:22:46.824Z,1021.4
2017-01-24T05:23:57.142Z,1021.34
2017-01-24T05:25:07.849Z,1021.32
2017-01-24T05:26:18.576Z,1021.33
2017-01-24T05:27:28.879Z,1021.39
2017-01-24T05:28:39.583Z,1021.43
2017-01-24T05:29:49.517Z,1021.41
2017-01-24T05:30:59.834Z,1021.47
2017-01-24T05:32:10.556Z,1021.52
2017-01-24T05:33:21.255Z,1021.51
2017-01-24T05:34:31.561Z,1021.48
2017-01-24T05:35:41.481Z,1021.49
2017-01-24T05:36:52.199Z,1021.48
2017-01-24T05:38:02.516Z,1021.42
2017-01-24T05:39:13.225Z,1021.44
2017-01-24T05:40:23.254Z,1021.5
2017-01-24T05:41:33.161Z,1021.55
2017-01-24T05:42:43.484Z,1021.53
2017-01-24T05:43:54.345Z,1021.51
2017-01-24T05:45:04.659Z,1021.56
2017-01-24T05:46:15.367Z,1021.52
2017-01-24T05:47:25.680Z,1021.6
2017-01-24T05:48:36.389Z,1021.51
2017-01-24T05:49:46.320Z,1021.58
2017-01-24T05:50:57.075Z,1021.58
2017-01-24T05:52:07.788Z,1021.6
2017-01-24T05:53:17.706Z,1021.62
2017-01-24T05:54:28.035Z,1021.59
2017-01-24T05:55:37.954Z,1021.58
2017-01-24T05:56:48.663Z,1021.64
2017-01-24T05:57:59.376Z,1021.67
2017-01-24T05:59:09.690Z,1021.66
2017-01-24T06:00:20.410Z,1021.66
2017-01-24T06:01:30.330Z,1021.68
2017-01-24T06:02:41.034Z,1021.68
2017-01-24T06:03:50.947Z,1021.69
2017-01-24T06:05:01.661Z,1021.69
2017-01-24T06:06:11.588Z,1021.68
2017-01-24T06:07:21.923Z,1021.71
2017-01-24T06:08:31.847Z,1021.68
2017-01-24T06:09:42.179Z,1021.67
2017-01-24T06:10:52.886Z,1021.67
2017-01-24T06:12:03.197Z,1021.67
2017-01-24T06:13:13.917Z,1021.64
2017-01-24T06:14:23.831Z,1021.68
2017-01-24T06:15:33.744Z,1021.71
2017-01-24T06:16:44.461Z,1021.72
2017-01-24T06:17:54.775Z,1021.7
2017-01-24T06:19:05.485Z,1021.7
2017-01-24T06:20:15.412Z,1021.68
2017-01-24T06:21:26.116Z,1021.73
2017-01-24T06:22:36.510Z,1021.7
2017-01-24T06:23:47.210Z,1021.7
2017-01-24T06:24:57.517Z,1021.77
2017-01-24T06:26:07.431Z,1021.76
2017-01-24T06:27:16.960Z,1021.78
2017-01-24T06:28:27.277Z,1021.78
2017-01-24T06:29:37.580Z,1021.82
2017-01-24T06:30:48.298Z,1021.82
2017-01-24T06:31:57.814Z,1021.86
2017-01-24T06:33:08.535Z,1021.84
2017-01-24T06:34:18.845Z,1021.86
2017-01-24T06:35:29.581Z,1021.88
2017-01-24T06:36:39.903Z,1021.88
2017-01-24T06:37:49.824Z,1021.9
2017-01-24T06:39:00.183Z,1021.94
2017-01-24T06:40:10.880Z,1021.92
2017-01-24T06:41:21.194Z,1021.97
2017-01-24T06:42:31.114Z,1021.93
2017-01-24T06:43:41.043Z,1021.99
2017-01-24T06:44:51.354Z,1021.98
2017-01-24T06:46:01.668Z,1021.96
2017-01-24T06:47:11.980Z,1021.97
2017-01-24T06:48:22.288Z,1022
2017-01-24T06:49:33.011Z,1021.99
2017-01-24T06:50:43.328Z,1022
2017-01-24T06:51:54.045Z,1022.06
2017-01-24T06:53:04.361Z,1022.06
2017-01-24T06:54:14.711Z,1022.1
2017-01-24T06:55:24.650Z,1022.13
2017-01-24T06:56:34.966Z,1022.1
2017-01-24T06:57:45.696Z,1022.11
2017-01-24T06:58:56.003Z,1022.12
2017-01-24T07:00:06.320Z,1022.18
2017-01-24T07:01:16.633Z,1022.19
2017-01-24T07:02:26.964Z,1022.22
2017-01-24T07:03:37.686Z,1022.23
2017-01-24T07:04:48.406Z,1022.23
2017-01-24T07:05:59.116Z,1022.29
2017-01-24T07:07:09.040Z,1022.33
2017-01-24T07:08:19.762Z,1022.31
2017-01-24T07:09:30.083Z,1022.39
2017-01-24T07:10:40.790Z,1022.33
2017-01-24T07:11:51.102Z,1022.35
2017-01-24T07:13:01.865Z,1022.39
2017-01-24T07:14:11.789Z,1022.42
2017-01-24T07:15:21.782Z,1022.45
2017-01-24T07:16:32.142Z,1022.54
2017-01-24T07:17:42.857Z,1022.5
2017-01-24T07:18:52.777Z,1022.45
2017-01-24T07:20:03.497Z,1022.47
2017-01-24T07:21:14.210Z,1022.47
2017-01-24T07:22:24.937Z,1022.5
2017-01-24T07:23:34.870Z,1022.49
2017-01-24T07:24:44.409Z,1022.47
2017-01-24T07:25:54.744Z,1022.49
2017-01-24T07:27:04.671Z,1022.56
2017-01-24T07:28:15.405Z,1022.54
2017-01-24T07:29:25.715Z,1022.59
2017-01-24T07:30:36.051Z,1022.59
2017-01-24T07:31:46.771Z,1022.61
2017-01-24T07:32:57.499Z,1022.6
2017-01-24T07:34:08.250Z,1022.61
2017-01-24T07:35:18.567Z,1022.64
2017-01-24T07:36:28.907Z,1022.68
2017-01-24T07:37:39.637Z,1022.68
2017-01-24T07:38:50.041Z,1022.66
2017-01-24T07:40:00.758Z,1022.68
2017-01-24T07:41:11.071Z,1022.66
2017-01-24T07:42:21.809Z,1022.65
2017-01-24T07:43:32.130Z,1022.62
2017-01-24T07:44:42.127Z,1022.72
2017-01-24T07:45:52.510Z,1022.77
2017-01-24T07:47:02.865Z,1022.76
2017-01-24T07:48:13.595Z,1022.84
2017-01-24T07:49:23.547Z,1022.79
2017-01-24T07:50:33.880Z,1022.79
2017-01-24T07:51:44.241Z,1022.79
2017-01-24T07:52:54.196Z,1022.83
2017-01-24T07:54:04.544Z,1022.83
2017-01-24T07:55:15.305Z,1022.84
2017-01-24T07:56:25.230Z,1022.89
2017-01-24T07:57:35.569Z,1022.88
2017-01-24T07:58:46.289Z,1022.92
2017-01-24T07:59:56.628Z,1022.92
2017-01-24T08:01:06.962Z,1022.96
2017-01-24T08:02:17.355Z,1022.93
2017-01-24T08:03:27.685Z,1022.91
2017-01-24T08:04:38.002Z,1022.89
2017-01-24T08:05:48.330Z,1022.87
2017-01-24T08:06:59.288Z,1022.89
2017-01-24T08:08:09.614Z,1022.92
2017-01-24T08:09:20.354Z,1022.94
2017-01-24T08:10:31.124Z,1022.94
2017-01-24T08:11:41.887Z,1022.97
2017-01-24T08:12:52.594Z,1022.98
2017-01-24T08:14:03.311Z,1023.02
2017-01-24T08:15:14.087Z,1023
2017-01-24T08:16:24.405Z,1023
2017-01-24T08:17:34.746Z,1022.99
2017-01-24T08:18:45.080Z,1022.99
2017-01-24T08:19:55.864Z,1023.01
2017-01-24T08:21:06.593Z,1023.04
2017-01-24T08:22:17.328Z,1023.03
2017-01-24T08:23:27.647Z,1023.06
2017-01-24T08:24:38.362Z,1023.05
2017-01-24T08:25:49.092Z,1023.06
2017-01-24T08:26:59.403Z,1023.06
2017-01-24T08:28:09.730Z,1023.01
2017-01-24T08:29:20.501Z,1023.03
2017-01-24T08:30:31.223Z,1023.05
2017-01-24T08:31:41.960Z,1023.02
2017-01-24T08:32:52.693Z,1023.06
2017-01-24T08:34:03.416Z,1023.02
2017-01-24T08:35:13.759Z,1023.06
2017-01-24T08:36:24.103Z,1023.09
2017-01-24T08:37:34.449Z,1023.11
2017-01-24T08:38:45.188Z,1023.14
2017-01-24T08:39:55.902Z,1023.19
2017-01-24T08:41:06.621Z,1023.22
2017-01-24T08:42:16.558Z,1023.22
2017-01-24T08:43:26.878Z,1023.21
2017-01-24T08:44:37.609Z,1023.22
2017-01-24T08:45:48.347Z,1023.24
2017-01-24T08:46:58.292Z,1023.21
2017-01-24T08:48:08.610Z,1023.22
2017-01-24T08:49:19.354Z,1023.2
2017-01-24T08:50:29.284Z,1023.2
2017-01-24T08:51:40.024Z,1023.26
2017-01-24T08:52:50.408Z,1023.27
2017-01-24T08:54:01.147Z,1023.21
2017-01-24T08:55:11.942Z,1023.3
2017-01-24T08:56:22.264Z,1023.29
2017-01-24T08:57:33.028Z,1023.3
2017-01-24T08:58:43.755Z,1023.32
2017-01-24T08:59:53.694Z,1023.33
2017-01-24T09:01:04.426Z,1023.37
2017-01-24T09:02:15.143Z,1023.38
2017-01-24T09:03:25.428Z,1023.39
2017-01-24T09:04:35.802Z,1023.42
2017-01-24T09:05:46.539Z,1023.42
2017-01-24T09:06:57.290Z,1023.43
2017-01-24T09:08:08.008Z,1023.43
2017-01-24T09:09:18.336Z,1023.41
2017-01-24T09:10:28.296Z,1023.44
2017-01-24T09:11:38.257Z,1023.43
2017-01-24T09:12:49.002Z,1023.41
2017-01-24T09:13:59.695Z,1023.42
2017-01-24T09:15:10.100Z,1023.4
2017-01-24T09:16:20.814Z,1023.37
2017-01-24T09:17:31.537Z,1023.41
2017-01-24T09:18:42.282Z,1023.43
2017-01-24T09:19:53.014Z,1023.42
2017-01-24T09:21:03.745Z,1023.43
2017-01-24T09:22:14.052Z,1023.44
2017-01-24T09:23:24.772Z,1023.38
2017-01-24T09:24:35.496Z,1023.38
2017-01-24T09:25:46.224Z,1023.41
2017-01-24T09:26:56.948Z,1023.45
2017-01-24T09:28:07.304Z,1023.49
2017-01-24T09:29:17.242Z,1023.49
2017-01-24T09:30:27.965Z,1023.48
2017-01-24T09:31:38.734Z,1023.45
2017-01-24T09:32:49.466Z,1023.42
2017-01-24T09:34:00.203Z,1023.43
2017-01-24T09:35:09.738Z,1023.44
2017-01-24T09:36:20.487Z,1023.42
2017-01-24T09:37:31.208Z,1023.45
2017-01-24T09:38:41.950Z,1023.44
2017-01-24T09:39:52.279Z,1023.47
2017-01-24T09:41:02.206Z,1023.47
2017-01-24T09:42:12.923Z,1023.44
2017-01-24T09:43:23.252Z,1023.45
2017-01-24T09:44:33.969Z,1023.44
2017-01-24T09:45:44.293Z,1023.42
2017-01-24T09:46:54.213Z,1023.41
2017-01-24T09:48:04.529Z,1023.37
2017-01-24T09:49:14.846Z,1023.37
2017-01-24T09:50:25.837Z,1023.39
2017-01-24T09:51:36.153Z,1023.39
2017-01-24T09:52:46.893Z,1023.43
2017-01-24T09:53:56.821Z,1023.46
2017-01-24T09:55:07.752Z,1023.49
2017-01-24T09:56:18.474Z,1023.54
2017-01-24T09:57:29.219Z,1023.5
2017-01-24T09:58:39.938Z,1023.53
2017-01-24T09:59:50.645Z,1023.56
2017-01-24T10:01:01.363Z,1023.53
2017-01-24T10:02:11.707Z,1023.55
2017-01-24T10:03:22.056Z,1023.54
2017-01-24T10:04:32.793Z,1023.56
2017-01-24T10:05:43.516Z,1023.54
2017-01-24T10:06:54.272Z,1023.54
2017-01-24T10:08:04.654Z,1023.56
2017-01-24T10:09:14.982Z,1023.54
2017-01-24T10:10:25.326Z,1023.52
2017-01-24T10:11:36.054Z,1023.57
2017-01-24T10:12:46.801Z,1023.6
2017-01-24T10:13:57.519Z,1023.55
2017-01-24T10:15:07.480Z,1023.51
2017-01-24T10:16:17.890Z,1023.51
2017-01-24T10:17:27.855Z,1023.47
2017-01-24T10:18:38.182Z,1023.43
2017-01-24T10:19:48.916Z,1023.43
2017-01-24T10:20:59.244Z,1023.51
2017-01-24T10:22:09.567Z,1023.53
2017-01-24T10:23:20.287Z,1023.56
2017-01-24T10:24:30.998Z,1023.55
2017-01-24T10:25:41.308Z,1023.57
2017-01-24T10:26:52.053Z,1023.57
2017-01-24T10:28:02.774Z,1023.51
2017-01-24T10:29:13.507Z,1023.49
2017-01-24T10:30:24.229Z,1023.5
2017-01-24T10:31:34.959Z,1023.53
2017-01-24T10:32:45.663Z,1023.52
2017-01-24T10:33:55.979Z,1023.63
2017-01-24T10:35:06.719Z,1023.65
2017-01-24T10:36:17.424Z,1023.68
2017-01-24T10:37:28.153Z,1023.66
2017-01-24T10:38:38.869Z,1023.68
2017-01-24T10:39:49.187Z,1023.65
2017-01-24T10:40:59.508Z,1023.68
2017-01-24T10:42:10.229Z,1023.64
2017-01-24T10:43:20.949Z,1023.64
2017-01-24T10:44:31.661Z,1023.67
2017-01-24T10:45:42.407Z,1023.62
2017-01-24T10:46:53.116Z,1023.64
2017-01-24T10:48:03.843Z,1023.67
2017-01-24T10:49:14.586Z,1023.69
2017-01-24T10:50:25.310Z,1023.72
2017-01-24T10:51:36.168Z,1023.66
2017-01-24T10:52:46.943Z,1023.74
2017-01-24T10:53:57.257Z,1023.73
2017-01-24T10:55:07.573Z,1023.73
2017-01-24T10:56:18.307Z,1023.74
2017-01-24T10:57:29.031Z,1023.74
2017-01-24T10:58:39.773Z,1023.76
2017-01-24T10:59:50.745Z,1023.78
2017-01-24T11:01:01.513Z,1023.73
2017-01-24T11:02:11.835Z,1023.7
2017-01-24T11:03:22.590Z,1023.69
2017-01-24T11:04:32.926Z,1023.72
2017-01-24T11:05:43.664Z,1023.72
2017-01-24T11:06:54.421Z,1023.78
2017-01-24T11:08:04.748Z,1023.74
2017-01-24T11:09:15.466Z,1023.76
2017-01-24T11:10:26.189Z,1023.72
2017-01-24T11:11:36.116Z,1023.77
2017-01-24T11:12:46.829Z,1023.8
2017-01-24T11:13:57.554Z,1023.75
2017-01-24T11:15:08.282Z,1023.7
2017-01-24T11:16:19.025Z,1023.73
2017-01-24T11:17:29.388Z,1023.71
2017-01-24T11:18:40.093Z,1023.75
2017-01-24T11:19:50.039Z,1023.76
2017-01-24T11:21:00.633Z,1023.75
2017-01-24T11:22:11.005Z,1023.75
2017-01-24T11:23:21.732Z,1023.71
2017-01-24T11:24:32.490Z,1023.74
2017-01-24T11:25:42.438Z,1023.72
2017-01-24T11:26:53.221Z,1023.76
2017-01-24T11:28:03.940Z,1023.71
2017-01-24T11:29:14.718Z,1023.75
2017-01-24T11:30:25.048Z,1023.79
2017-01-24T11:31:35.367Z,1023.76
2017-01-24T11:32:46.075Z,1023.75
2017-01-24T11:33:56.812Z,1023.8
2017-01-24T11:35:07.142Z,1023.79
2017-01-24T11:36:17.865Z,1023.84
2017-01-24T11:37:28.241Z,1023.79
2017-01-24T11:38:38.969Z,1023.82
2017-01-24T11:39:49.718Z,1023.82
2017-01-24T11:41:00.074Z,1023.75
2017-01-24T11:42:10.813Z,1023.8
2017-01-24T11:43:21.568Z,1023.77
2017-01-24T11:44:32.305Z,1023.75
2017-01-24T11:45:43.059Z,1023.8
2017-01-24T11:46:53.430Z,1023.78
2017-01-24T11:48:04.176Z,1023.79
2017-01-24T11:49:14.144Z,1023.76
2017-01-24T11:50:24.484Z,1023.8
2017-01-24T11:51:34.807Z,1023.73
2017-01-24T11:52:45.447Z,1023.73
2017-01-24T11:53:56.208Z,1023.71
2017-01-24T11:55:06.125Z,1023.66
2017-01-24T11:56:16.839Z,1023.66
2017-01-24T11:57:27.563Z,1023.63
2017-01-24T11:58:38.331Z,1023.63
2017-01-24T11:59:48.647Z,1023.66
2017-01-24T12:00:58.993Z,1023.68
2017-01-24T12:02:09.728Z,1023.61
2017-01-24T12:03:20.041Z,1023.64
2017-01-24T12:04:30.756Z,1023.65
2017-01-24T12:05:40.691Z,1023.66
2017-01-24T12:06:51.033Z,1023.65
2017-01-24T12:08:00.961Z,1023.77
2017-01-24T12:09:11.695Z,1023.72
2017-01-24T12:10:22.022Z,1023.75
2017-01-24T12:11:32.753Z,1023.75
2017-01-24T12:12:42.679Z,1023.8
2017-01-24T12:13:53.404Z,1023.8
2017-01-24T12:15:04.118Z,1023.78
2017-01-24T12:16:14.860Z,1023.8
2017-01-24T12:17:25.587Z,1023.76
2017-01-24T12:18:35.904Z,1023.8
2017-01-24T12:19:46.630Z,1023.77
2017-01-24T12:20:56.966Z,1023.77
2017-01-24T12:22:07.678Z,1023.75
2017-01-24T12:23:17.990Z,1023.8
2017-01-24T12:24:28.310Z,1023.79
2017-01-24T12:25:38.624Z,1023.86
2017-01-24T12:26:49.341Z,1023.82
2017-01-24T12:27:59.660Z,1023.85
2017-01-24T12:29:10.433Z,1023.85
2017-01-24T12:30:21.235Z,1023.84
2017-01-24T12:31:31.952Z,1023.79
2017-01-24T12:32:42.690Z,1023.82
2017-01-24T12:33:53.023Z,1023.73
2017-01-24T12:35:03.811Z,1023.78
2017-01-24T12:36:14.200Z,1023.79
2017-01-24T12:37:24.954Z,1023.82
2017-01-24T12:38:35.439Z,1023.84
2017-01-24T12:39:45.379Z,1023.81
2017-01-24T12:40:55.332Z,1023.78
2017-01-24T12:42:06.057Z,1023.83
2017-01-24T12:43:16.793Z,1023.82
2017-01-24T12:44:27.147Z,1023.81
2017-01-24T12:45:37.879Z,1023.78
2017-01-24T12:46:48.604Z,1023.84
2017-01-24T12:47:59.318Z,1023.86
2017-01-24T12:49:09.651Z,1023.88
2017-01-24T12:50:20.384Z,1023.89
2017-01-24T12:51:30.735Z,1023.87
2017-01-24T12:52:41.454Z,1023.88
2017-01-24T12:53:51.372Z,1023.93
2017-01-24T12:55:01.705Z,1023.82
2017-01-24T12:56:12.722Z,1023.77
2017-01-24T12:57:23.431Z,1023.73
2017-01-24T12:58:33.767Z,1023.68
2017-01-24T12:59:44.087Z,1023.75
2017-01-24T13:00:54.422Z,1023.8
2017-01-24T13:02:04.740Z,1023.87
2017-01-24T13:03:14.682Z,1023.88
2017-01-24T13:04:24.595Z,1023.84
2017-01-24T13:05:35.321Z,1023.88
2017-01-24T13:06:46.029Z,1023.87
2017-01-24T13:07:55.570Z,1023.84
2017-01-24T13:09:05.487Z,1023.84
2017-01-24T13:10:15.826Z,1023.82
2017-01-24T13:11:26.146Z,1023.82
2017-01-24T13:12:36.462Z,1023.82
2017-01-24T13:13:46.776Z,1023.84
2017-01-24T13:14:57.131Z,1023.87
2017-01-24T13:16:07.461Z,1023.88
2017-01-24T13:17:18.202Z,1023.89
2017-01-24T13:18:28.924Z,1023.94
2017-01-24T13:19:39.663Z,1023.98
2017-01-24T13:20:50.097Z,1024.01
2017-01-24T13:22:00.835Z,1024.05
2017-01-24T13:23:11.168Z,1024.1
2017-01-24T13:24:20.697Z,1024.13
2017-01-24T13:25:30.241Z,1024.1
2017-01-24T13:26:40.565Z,1024.07
2017-01-24T13:27:50.897Z,1024.08
2017-01-24T13:29:01.614Z,1024.12
2017-01-24T13:30:12.322Z,1024.08
2017-01-24T13:31:23.051Z,1024.08
2017-01-24T13:32:33.402Z,1024.06
2017-01-24T13:33:43.725Z,1024.08
2017-01-24T13:34:54.043Z,1024.05
2017-01-24T13:36:04.778Z,1024.05
2017-01-24T13:37:15.097Z,1024.11
2017-01-24T13:38:25.431Z,1024.15
2017-01-24T13:39:35.354Z,1024.15
2017-01-24T13:40:45.686Z,1024.15
2017-01-24T13:41:56.001Z,1024.14
2017-01-24T13:43:06.377Z,1024.16
2017-01-24T13:44:16.716Z,1024.16
2017-01-24T13:45:27.466Z,1024.12
2017-01-24T13:46:38.300Z,1024.15
2017-01-24T13:47:49.044Z,1024.18
2017-01-24T13:48:58.982Z,1024.24
2017-01-24T13:50:09.327Z,1024.24
2017-01-24T13:51:19.698Z,1024.27
2017-01-24T13:52:30.046Z,1024.28
2017-01-24T13:53:40.370Z,1024.26
2017-01-24T13:54:50.690Z,1024.25
2017-01-24T13:56:01.459Z,1024.26
2017-01-24T13:57:11.037Z,1024.19
2017-01-24T13:58:21.765Z,1024.23
2017-01-24T13:59:32.098Z,1024.22
2017-01-24T14:00:42.447Z,1024.24
2017-01-24T14:01:52.388Z,1024.25
2017-01-24T14:03:03.120Z,1024.32
2017-01-24T14:04:13.834Z,1024.34
2017-01-24T14:05:23.784Z,1024.31
2017-01-24T14:06:34.528Z,1024.31
2017-01-24T14:07:45.245Z,1024.32
2017-01-24T14:08:55.592Z,1024.31
2017-01-24T14:10:06.320Z,1024.32
2017-01-24T14:11:17.054Z,1024.28
2017-01-24T14:12:26.996Z,1024.29
2017-01-24T14:13:37.318Z,1024.31
2017-01-24T14:14:48.042Z,1024.3